Bungo Princess — 3FXV8 — position and weather

sailwx.info

Track history (hours):
 
Tides and Currents Weather Stations Pressure Air Temp Water Temp Dewpoint Dewpoint Depression Visibility Wind Speed Wind Dir Waves Ship Positions

Bungo Princess

Last reported at 2017-Sep-22 02:00 UTC. Time now 2017-Sep-25 20:21 UTC.
Position N 31°26' E 121°29'.

Length 103 m; draft 6.3 m.

Type: Cargo ship. MMSI: 355074054.

Date/timePositionNaut miles runAvg speedWind from/ knotsBaromVisibWave heightAir tempDewpointWater temp
2017-Sep-22 02:00N 31°26' E 121°29'0 0.0
2017-Sep-22 01:30N 31°26' E 121°29'0 0.0
2017-Sep-22 01:00N 31°26' E 121°29'0 0.0
2017-Sep-22 00:30N 31°26' E 121°29'0 0.0
2017-Sep-22 00:00N 31°26' E 121°29'0 0.0
2017-Sep-21 23:30N 31°26' E 121°29'0 0.0
2017-Sep-21 23:00N 31°26' E 121°29'0 0.0
2017-Sep-21 22:30N 31°26' E 121°29'0 0.0
2017-Sep-21 22:00N 31°26' E 121°29'0 0.0
2017-Sep-21 21:30N 31°26' E 121°29'0 0.0
2017-Sep-21 21:00N 31°26' E 121°29'0 0.0
2017-Sep-21 20:30N 31°26' E 121°29'0 0.0
2017-Sep-21 20:00N 31°26' E 121°29'0 0.2
2017-Sep-21 19:30N 31°26' E 121°29'3 5.4
2017-Sep-21 19:00N 31°25' E 121°32'5 9.6
2017-Sep-21 18:30N 31°23' E 121°36'4 8.4
2017-Sep-21 18:00N 31°20' E 121°41'4 8.2
2017-Sep-21 17:30N 31°17' E 121°44'5 9.7
2017-Sep-21 16:58N 31°14' E 121°48'4 8.9
2017-Sep-21 16:30N 31°10' E 121°51'5 9.1
2017-Sep-21 16:00N 31°08' E 121°56'5 9.8
2017-Sep-21 15:30N 31°05' E 122°01'5 9.7
2017-Sep-21 15:00N 31°04' E 122°06'710.1
2017-Sep-21 14:20N 31°03' E 122°14'3 7.4
2017-Sep-21 13:54N 31°03' E 122°18'3 7.2
2017-Sep-21 13:30N 31°02' E 122°21'5 7.9
2017-Sep-21 12:56N 31°01' E 122°26'  
Track history (hours):
 
Tides and Currents Weather Stations Pressure Air Temp Water Temp Dewpoint Dewpoint Depression Visibility Wind Speed Wind Dir Waves Ship Positions

Bungo Princess

Last reported at 2017-Sep-22 02:00 UTC. Time now 2017-Sep-25 20:21 UTC.
Position N 31°26' E 121°29'.

Length 103 m; draft 6.3 m.

Type: Cargo ship. MMSI: 355074054.

Date/timePositionNaut miles runAvg speedWind from/ knotsBaromVisibWave heightAir tempDewpointWater temp
2017-Sep-22 02:00N 31°26' E 121°29'0 0.0
2017-Sep-22 01:30N 31°26' E 121°29'0 0.0
2017-Sep-22 01:00N 31°26' E 121°29'0 0.0
2017-Sep-22 00:30N 31°26' E 121°29'0 0.0
2017-Sep-22 00:00N 31°26' E 121°29'0 0.0
2017-Sep-21 23:30N 31°26' E 121°29'0 0.0
2017-Sep-21 23:00N 31°26' E 121°29'0 0.0
2017-Sep-21 22:30N 31°26' E 121°29'0 0.0
2017-Sep-21 22:00N 31°26' E 121°29'0 0.0
2017-Sep-21 21:30N 31°26' E 121°29'0 0.0
2017-Sep-21 21:00N 31°26' E 121°29'0 0.0
2017-Sep-21 20:30N 31°26' E 121°29'0 0.0
2017-Sep-21 20:00N 31°26' E 121°29'0 0.2
2017-Sep-21 19:30N 31°26' E 121°29'3 5.4
2017-Sep-21 19:00N 31°25' E 121°32'5 9.6
2017-Sep-21 18:30N 31°23' E 121°36'4 8.4
2017-Sep-21 18:00N 31°20' E 121°41'4 8.2
2017-Sep-21 17:30N 31°17' E 121°44'5 9.7
2017-Sep-21 16:58N 31°14' E 121°48'4 8.9
2017-Sep-21 16:30N 31°10' E 121°51'5 9.1
2017-Sep-21 16:00N 31°08' E 121°56'5 9.8
2017-Sep-21 15:30N 31°05' E 122°01'5 9.7
2017-Sep-21 15:00N 31°04' E 122°06'710.1
2017-Sep-21 14:20N 31°03' E 122°14'3 7.4
2017-Sep-21 13:54N 31°03' E 122°18'3 7.2
2017-Sep-21 13:30N 31°02' E 122°21'5 7.9
2017-Sep-21 12:56N 31°01' E 122°26'  

Dump ship's entire track history